createdAt,value
2022-09-11T12:44:32.188Z,4.97
2022-09-11T12:46:58.681Z,5.47
2022-09-11T12:49:26.124Z,5.22
2022-09-11T12:52:01.623Z,4.65
2022-09-11T12:54:33.547Z,4.75
2022-09-11T12:57:09.380Z,5.00
2022-09-11T12:59:38.649Z,4.90
2022-09-11T13:02:24.556Z,5.63
2022-09-11T13:04:52.206Z,5.15
2022-09-11T13:07:30.405Z,4.55
2022-09-11T13:10:01.421Z,4.15
2022-09-11T13:12:27.948Z,4.82
2022-09-11T13:14:56.168Z,5.30
2022-09-11T13:17:25.954Z,4.88
2022-09-11T13:19:57.469Z,4.20
2022-09-11T13:22:31.129Z,4.50
2022-09-11T13:25:19.006Z,4.35
2022-09-11T13:27:48.070Z,4.68
2022-09-11T13:30:16.269Z,4.78
2022-09-11T13:32:44.081Z,4.40
2022-09-11T13:35:22.818Z,3.70
2022-09-11T13:38:01.748Z,4.60
2022-09-11T13:40:38.267Z,3.55
2022-09-11T13:43:05.172Z,3.58
2022-09-11T13:45:31.878Z,3.33
2022-09-11T13:47:59.251Z,3.47
2022-09-11T13:50:25.969Z,3.33
2022-09-11T13:52:53.602Z,3.40
2022-09-11T13:55:25.179Z,3.17
2022-09-11T13:57:59.601Z,3.10
2022-09-11T14:00:40.877Z,2.92
2022-09-11T14:03:33.947Z,2.83
2022-09-11T14:06:10.167Z,2.80
2022-09-11T14:08:42.864Z,2.58
2022-09-11T14:11:18.251Z,2.65
2022-09-11T14:13:58.525Z,2.25
2022-09-11T14:16:29.070Z,2.88
2022-09-11T14:19:21.971Z,2.40
2022-09-11T14:21:49.767Z,2.35
2022-09-11T14:24:22.350Z,2.55
2022-09-11T14:26:49.056Z,2.60
2022-09-11T14:29:55.627Z,2.40
2022-09-11T14:32:36.903Z,2.78
2022-09-11T14:35:06.596Z,2.10
2022-09-11T14:37:36.497Z,2.42
2022-09-11T14:40:06.909Z,2.60
2022-09-11T14:42:35.068Z,2.45
2022-09-11T14:45:09.433Z,2.60
2022-09-11T14:47:36.572Z,2.70
2022-09-11T14:50:03.256Z,2.80
2022-09-11T14:52:30.369Z,2.90
2022-09-11T14:54:57.026Z,2.95
2022-09-11T14:57:26.301Z,3.08
2022-09-11T14:59:53.129Z,2.45
2022-09-11T15:02:24.795Z,2.70
2022-09-11T15:04:53.400Z,2.42
2022-09-11T15:07:23.218Z,2.63
2022-09-11T15:09:50.978Z,2.13
2022-09-11T15:12:17.767Z,2.53
2022-09-11T15:14:56.398Z,2.15
2022-09-11T15:17:25.434Z,2.45
2022-09-11T15:19:52.816Z,2.30
2022-09-11T15:22:19.659Z,2.40
2022-09-11T15:24:49.066Z,2.42
2022-09-11T15:27:15.933Z,2.50
2022-09-11T15:29:42.690Z,2.75
2022-09-11T15:32:10.287Z,2.53
2022-09-11T15:34:38.698Z,2.75
2022-09-11T15:37:06.011Z,2.08
2022-09-11T15:39:36.620Z,2.28
2022-09-11T15:42:03.554Z,2.00
2022-09-11T15:44:30.397Z,1.90
2022-09-11T15:46:58.746Z,2.03
2022-09-11T15:49:28.060Z,1.70
2022-09-11T15:51:55.453Z,2.13
2022-09-11T15:54:23.483Z,1.90
2022-09-11T15:56:51.137Z,2.00
2022-09-11T15:59:18.119Z,2.15
2022-09-11T16:01:45.147Z,2.03
2022-09-11T16:04:14.599Z,1.80
2022-09-11T16:06:45.805Z,1.38
2022-09-11T16:09:21.798Z,1.60
2022-09-11T16:11:50.576Z,1.55
2022-09-11T16:14:25.494Z,1.40
2022-09-11T16:16:52.909Z,1.70
2022-09-11T16:19:22.106Z,1.40
2022-09-11T16:21:50.098Z,1.75
2022-09-11T16:24:17.208Z,1.77
2022-09-11T16:26:44.384Z,1.77
2022-09-11T16:29:12.914Z,1.60
2022-09-11T16:31:40.182Z,1.63
2022-09-11T16:34:07.759Z,2.10
2022-09-11T16:36:42.615Z,1.90
2022-09-11T16:39:12.996Z,2.00
2022-09-11T16:41:39.683Z,2.05
2022-09-11T16:44:08.354Z,2.13
2022-09-11T16:46:35.462Z,2.45
2022-09-11T16:49:02.725Z,1.80
2022-09-11T16:51:30.136Z,2.00
2022-09-11T16:53:56.962Z,2.03
2022-09-11T16:56:24.410Z,2.22
2022-09-11T16:58:51.700Z,2.10
2022-09-11T17:01:23.389Z,2.13
2022-09-11T17:03:52.105Z,2.03
2022-09-11T17:06:20.209Z,1.80
2022-09-11T17:08:50.504Z,1.95
2022-09-11T17:11:19.166Z,2.10
2022-09-11T17:13:46.641Z,2.08
2022-09-11T17:16:19.187Z,2.10
2022-09-11T17:18:51.173Z,2.47
2022-09-11T17:21:17.859Z,2.28
2022-09-11T17:23:44.792Z,2.00
2022-09-11T17:26:15.305Z,1.90
2022-09-11T17:28:45.807Z,2.10
2022-09-11T17:31:14.460Z,2.20
2022-09-11T17:33:41.428Z,1.98
2022-09-11T17:36:10.460Z,2.00
2022-09-11T17:38:38.241Z,2.63
2022-09-11T17:41:06.863Z,1.83
2022-09-11T17:43:34.214Z,2.20
2022-09-11T17:46:06.397Z,2.50
2022-09-11T17:48:33.126Z,2.70
2022-09-11T17:51:14.062Z,2.60
2022-09-11T17:53:44.097Z,2.60
2022-09-11T17:56:14.335Z,2.40
2022-09-11T17:58:42.124Z,2.50
2022-09-11T18:01:09.013Z,3.22
2022-09-11T18:03:36.491Z,2.70
2022-09-11T18:06:04.758Z,3.17
2022-09-11T18:08:33.276Z,2.63
2022-09-11T18:11:01.126Z,2.60
2022-09-11T18:13:31.748Z,2.65
2022-09-11T18:15:58.716Z,2.17
2022-09-11T18:18:25.889Z,2.42
2022-09-11T18:20:54.461Z,2.70
2022-09-11T18:23:23.164Z,2.05
2022-09-11T18:25:50.622Z,2.30
2022-09-11T18:28:19.914Z,2.25
2022-09-11T18:30:47.427Z,2.22
2022-09-11T18:33:16.663Z,2.30
2022-09-11T18:35:44.295Z,2.53
2022-09-11T18:38:11.089Z,2.63
2022-09-11T18:40:37.749Z,2.33
2022-09-11T18:43:05.384Z,2.45
2022-09-11T18:45:35.058Z,2.25
2022-09-11T18:48:02.282Z,2.58
2022-09-11T18:50:28.915Z,2.42
2022-09-11T18:52:56.621Z,2.38
2022-09-11T18:55:23.567Z,2.78
2022-09-11T18:57:50.669Z,2.58
2022-09-11T19:00:18.382Z,2.88
2022-09-11T19:02:45.884Z,2.50
2022-09-11T19:05:13.910Z,2.45
2022-09-11T19:07:40.511Z,2.50
2022-09-11T19:10:07.482Z,2.20
2022-09-11T19:12:34.149Z,2.78
2022-09-11T19:15:00.731Z,2.70
2022-09-11T19:17:27.488Z,2.72
2022-09-11T19:19:54.472Z,2.80
2022-09-11T19:22:22.860Z,2.55
2022-09-11T19:24:49.858Z,2.65
2022-09-11T19:27:16.896Z,3.05
2022-09-11T19:29:43.628Z,2.10
2022-09-11T19:32:10.236Z,2.40
2022-09-11T19:34:46.324Z,2.70
2022-09-11T19:37:14.505Z,2.72
2022-09-11T19:39:41.281Z,2.92
2022-09-11T19:42:09.317Z,2.55
2022-09-11T19:44:36.328Z,2.30
2022-09-11T19:47:03.167Z,2.40
2022-09-11T19:49:29.925Z,3.25
2022-09-11T19:51:57.059Z,2.63
2022-09-11T19:54:23.875Z,2.95
2022-09-11T19:56:51.138Z,2.60
2022-09-11T19:59:18.240Z,3.17
2022-09-11T20:01:45.079Z,2.83
2022-09-11T20:04:13.528Z,2.30
2022-09-11T20:06:40.214Z,2.58
2022-09-11T20:09:29.710Z,2.55
2022-09-11T20:11:53.855Z,2.90
2022-09-11T20:14:20.473Z,2.75
2022-09-11T20:16:47.218Z,2.75
2022-09-11T20:19:14.969Z,2.80
2022-09-11T20:21:41.869Z,2.72
2022-09-11T20:24:09.193Z,2.47
2022-09-11T20:26:35.978Z,2.60
2022-09-11T20:29:06.781Z,2.60
2022-09-11T20:31:42.365Z,2.80
2022-09-11T20:34:12.982Z,3.00
2022-09-11T20:36:39.594Z,2.50
2022-09-11T20:39:06.328Z,2.97
2022-09-11T20:41:33.357Z,2.88
2022-09-11T20:44:03.730Z,2.97
2022-09-11T20:46:30.386Z,2.97
2022-09-11T20:51:47.141Z,2.70
2022-09-11T20:54:14.154Z,3.25
2022-09-11T20:56:40.991Z,3.50
2022-09-11T20:59:07.915Z,3.17
2022-09-11T21:01:34.679Z,3.70
2022-09-11T21:04:02.954Z,3.63
2022-09-11T21:06:32.145Z,3.13
2022-09-11T21:09:11.122Z,3.70
2022-09-11T21:11:39.232Z,4.00
2022-09-11T21:14:06.287Z,3.63
2022-09-11T21:16:33.697Z,3.50
2022-09-11T21:19:01.378Z,3.80
2022-09-11T21:21:29.085Z,3.65
2022-09-11T21:23:56.826Z,3.03
2022-09-11T21:26:23.703Z,2.90
2022-09-11T21:28:52.893Z,3.10
2022-09-11T21:31:19.752Z,3.40
2022-09-11T21:33:46.411Z,3.20
2022-09-11T21:36:13.359Z,3.00
2022-09-11T21:38:40.017Z,3.33
2022-09-11T21:41:08.779Z,3.05
2022-09-11T21:43:35.974Z,2.67
2022-09-11T21:46:03.665Z,3.03
2022-09-11T21:48:35.747Z,2.55
2022-09-11T21:51:16.711Z,2.53
2022-09-11T21:53:45.316Z,2.50
2022-09-11T21:56:24.936Z,3.35
2022-09-11T21:58:52.513Z,2.97
2022-09-11T22:01:20.567Z,2.92
2022-09-11T22:03:47.279Z,2.70
2022-09-11T22:06:14.059Z,2.65
2022-09-11T22:08:43.647Z,2.15
2022-09-11T22:11:11.150Z,2.50
2022-09-11T22:13:38.458Z,2.60
2022-09-11T22:16:09.771Z,2.17
2022-09-11T22:18:37.715Z,2.70
2022-09-11T22:21:04.792Z,2.55
2022-09-11T22:23:34.473Z,2.67
2022-09-11T22:26:13.195Z,2.65
2022-09-11T22:28:40.402Z,2.65
2022-09-11T22:31:08.671Z,2.65
2022-09-11T22:33:40.770Z,3.00
2022-09-11T22:36:19.768Z,2.70
2022-09-11T22:38:47.396Z,2.63
2022-09-11T22:41:14.409Z,2.50
2022-09-11T22:43:41.112Z,2.53
2022-09-11T22:46:08.172Z,2.45
2022-09-11T22:48:35.453Z,2.47
2022-09-11T22:51:02.443Z,2.58
2022-09-11T22:53:29.616Z,2.90
2022-09-11T22:55:56.483Z,2.80
2022-09-11T22:58:23.804Z,2.63
2022-09-11T23:00:53.554Z,2.63
2022-09-11T23:03:20.182Z,2.60
2022-09-11T23:06:06.547Z,2.00
2022-09-11T23:08:39.108Z,2.70
2022-09-11T23:11:06.076Z,2.58
2022-09-11T23:13:33.239Z,2.45
2022-09-11T23:16:00.101Z,2.50
2022-09-11T23:18:27.379Z,2.65
2022-09-11T23:20:55.404Z,2.58
2022-09-11T23:23:24.570Z,2.53
2022-09-11T23:25:51.733Z,2.50
2022-09-11T23:28:18.560Z,2.50
2022-09-11T23:30:45.532Z,2.22
2022-09-11T23:33:12.128Z,2.60
2022-09-11T23:35:39.511Z,2.30
2022-09-11T23:38:07.322Z,2.50
2022-09-11T23:40:34.242Z,2.28
2022-09-11T23:43:02.224Z,2.53
2022-09-11T23:45:29.087Z,2.38
2022-09-11T23:47:55.838Z,2.40
2022-09-11T23:50:22.563Z,2.67
2022-09-11T23:52:49.387Z,2.58
2022-09-11T23:55:19.116Z,2.50
2022-09-11T23:57:46.296Z,2.08
